Time;durP1;ratioP1;P1;durP2;ratioP2;P2;SDS_P1;SDS_P2;PMS_P1;PMS_P2;Temp;Humidity;BMP_temperature;BMP_pressure;BME280_temperature;BME280_humidity;BME280_pressure;Samples;Min_cycle;Max_cycle;Signal;HPM_P1;HPM_P2
2022/10/11 00:02:23;;;;;;;8.88;1.95;;;;;;;8.29;100.00;101245.25;6042893;29;20448;-92
2022/10/11 00:05:27;;;;;;;11.40;1.63;;;;;;;8.25;100.00;101246.38;6036850;29;20057;-91
2022/10/11 00:08:29;;;;;;;7.38;1.77;;;;;;;8.19;100.00;101247.53;6038140;29;20052;-91
2022/10/11 00:11:30;;;;;;;11.00;1.52;;;;;;;8.16;100.00;101254.63;6033240;29;20170;-91
2022/10/11 00:14:32;;;;;;;9.25;1.50;;;;;;;8.25;100.00;101261.84;6039078;29;20052;-91
2022/10/11 00:17:34;;;;;;;5.15;1.50;;;;;;;8.27;100.00;101254.00;6038988;29;20544;-90
2022/10/11 00:20:36;;;;;;;10.13;2.22;;;;;;;8.25;100.00;101267.00;6044484;29;20515;-90
2022/10/11 00:23:38;;;;;;;4.97;1.48;;;;;;;8.27;100.00;101272.88;6040663;29;20464;-91
2022/10/11 00:26:41;;;;;;;7.82;1.40;;;;;;;8.21;100.00;101273.25;6052298;29;20662;-92
2022/10/11 00:29:47;;;;;;;7.45;1.70;;;;;;;8.14;100.00;101279.66;6040746;29;20060;-93
2022/10/11 00:32:49;;;;;;;9.48;1.58;;;;;;;8.18;100.00;101274.25;6027009;29;20048;-91
2022/10/11 00:35:51;;;;;;;7.60;1.52;;;;;;;8.16;100.00;101273.50;6044488;29;20492;-91
2022/10/11 00:38:53;;;;;;;8.00;1.80;;;;;;;8.07;100.00;101273.19;6038279;29;20157;-91
2022/10/11 00:41:54;;;;;;;10.98;2.58;;;;;;;7.99;100.00;101279.59;6042709;29;20048;-91
2022/10/11 00:45:25;;;;;;;11.10;2.08;;;;;;;8.03;100.00;101284.59;6038870;29;20650;-91
2022/10/11 00:48:41;;;;;;;;;;;;;;;8.03;100.00;101285.44;5951231;29;20212;-90
2022/10/11 00:51:50;;;;;;;11.38;2.15;;;;;;;7.99;100.00;101284.75;5950577;29;20039;-90
2022/10/11 00:54:51;;;;;;;13.30;1.73;;;;;;;7.88;100.00;101287.13;5945499;29;20059;-90
2022/10/11 00:57:55;;;;;;;11.95;1.92;;;;;;;7.95;100.00;101291.03;5939636;29;20047;-90
2022/10/11 01:00:57;;;;;;;12.40;2.20;;;;;;;7.95;100.00;101283.28;5948956;29;20168;-90
2022/10/11 01:04:00;;;;;;;6.75;2.38;;;;;;;7.85;100.00;101284.72;5947307;29;20055;-90
2022/10/11 01:07:02;;;;;;;9.52;1.70;;;;;;;7.83;100.00;101285.72;5951401;29;20104;-90
2022/10/11 01:10:05;;;;;;;15.50;1.92;;;;;;;7.78;100.00;101293.69;5949156;29;21482;-90
2022/10/11 01:13:13;;;;;;;6.57;1.77;;;;;;;7.75;100.00;101294.69;5951418;29;20108;-90
2022/10/11 01:16:26;;;;;;;11.98;1.50;;;;;;;7.76;100.00;101293.78;5943720;29;20039;-90
2022/10/11 01:20:05;;;;;;;9.82;1.70;;;;;;;7.79;100.00;101294.53;5952999;29;20050;-90
2022/10/11 01:23:38;;;;;;;9.77;2.13;;;;;;;7.82;100.00;101290.00;5950113;29;20055;-90
2022/10/11 01:26:51;;;;;;;9.20;2.67;;;;;;;7.76;100.00;101303.25;6038603;29;20428;-90
2022/10/11 01:30:22;;;;;;;7.85;2.65;;;;;;;7.77;100.00;101302.31;6035047;29;20112;-90
2022/10/11 01:33:37;;;;;;;7.88;1.60;;;;;;;7.65;100.00;101303.84;6059392;29;20061;-90
2022/10/11 01:36:54;;;;;;;8.30;1.70;;;;;;;7.58;100.00;101310.25;6048494;29;20090;-90
2022/10/11 01:39:59;;;;;;;10.00;1.83;;;;;;;7.52;100.00;101313.97;6041534;29;20056;-90
2022/10/11 01:43:03;;;;;;;8.55;1.75;;;;;;;7.51;100.00;101312.31;6037623;29;20080;-90
2022/10/11 01:46:08;;;;;;;10.75;2.85;;;;;;;7.48;100.00;101314.22;6058627;29;20049;-90
2022/10/11 01:49:10;;;;;;;10.45;1.60;;;;;;;7.48;100.00;101312.47;6043221;29;20220;-90
2022/10/11 01:52:12;;;;;;;10.35;1.83;;;;;;;7.48;100.00;101321.94;6043090;29;20049;-90
2022/10/11 01:55:53;;;;;;;10.48;1.88;;;;;;;7.46;100.00;101313.47;6045887;29;20124;-90
2022/10/11 01:59:27;;;;;;;7.55;1.42;;;;;;;7.42;100.00;101323.09;5998322;29;20088;-90
2022/10/11 02:02:45;;;;;;;10.10;1.77;;;;;;;7.37;100.00;101325.06;5983206;29;20087;-90
2022/10/11 02:06:04;;;;;;;7.78;1.67;;;;;;;7.42;100.00;101327.41;5995739;29;20050;-89
2022/10/11 02:09:10;;;;;;;7.75;1.48;;;;;;;7.40;100.00;101324.09;6001477;29;20125;-90
2022/10/11 02:12:23;;;;;;;10.18;2.00;;;;;;;7.36;100.00;101332.91;6012530;29;20081;-90
2022/10/11 02:15:29;;;;;;;12.30;2.33;;;;;;;7.31;100.00;101336.53;6006333;29;20093;-90
2022/10/11 02:18:36;;;;;;;6.85;1.50;;;;;;;7.31;100.00;101333.97;5990556;29;20146;-90
2022/10/11 02:21:42;;;;;;;7.65;1.48;;;;;;;7.33;100.00;101333.91;5991780;29;20063;-90
2022/10/11 02:24:49;;;;;;;9.00;1.98;;;;;;;7.38;100.00;101339.63;5995777;29;20501;-90
2022/10/11 02:27:56;;;;;;;9.98;1.60;;;;;;;7.34;100.00;101336.38;5989734;29;20258;-90
2022/10/11 02:31:00;;;;;;;8.55;1.60;;;;;;;7.37;100.00;101337.13;5986062;29;20054;-90
2022/10/11 02:34:23;;;;;;;9.20;1.60;;;;;;;7.34;100.00;101335.56;5998877;29;20056;-90
2022/10/11 02:37:40;;;;;;;11.38;1.90;;;;;;;7.31;100.00;101340.88;6033134;29;20045;-90
2022/10/11 02:40:47;;;;;;;9.23;1.88;;;;;;;7.29;100.00;101340.09;6031615;29;20041;-90
2022/10/11 02:43:59;;;;;;;7.72;1.80;;;;;;;7.30;100.00;101339.19;6031080;29;20038;-89
2022/10/11 02:47:02;;;;;;;12.50;1.90;;;;;;;7.33;100.00;101344.19;6028673;29;20045;-89
2022/10/11 02:50:05;;;;;;;11.43;3.28;;;;;;;7.29;100.00;101338.34;6028503;29;20081;-89
2022/10/11 02:53:07;;;;;;;9.32;1.67;;;;;;;7.32;100.00;101342.53;6043449;29;20053;-90
2022/10/11 02:56:09;;;;;;;6.07;2.05;;;;;;;7.28;100.00;101344.44;6031035;29;20571;-89
2022/10/11 02:59:11;;;;;;;8.25;2.05;;;;;;;7.23;100.00;101343.00;6032172;29;20042;-89
2022/10/11 03:02:13;;;;;;;13.70;1.85;;;;;;;7.24;100.00;101342.09;6040824;29;20064;-90
2022/10/11 03:05:15;;;;;;;6.38;1.70;;;;;;;7.22;100.00;101349.06;6016394;29;20045;-89
2022/10/11 03:08:16;;;;;;;6.90;2.28;;;;;;;7.22;100.00;101352.47;6033997;29;20071;-90
2022/10/11 03:11:18;;;;;;;11.50;1.75;;;;;;;7.20;100.00;101356.03;6034432;29;20045;-90
2022/10/11 03:14:20;;;;;;;10.07;1.88;;;;;;;7.16;100.00;101360.50;6038898;29;20060;-90
2022/10/11 03:17:22;;;;;;;10.07;2.03;;;;;;;7.15;100.00;101356.25;6034602;29;20053;-90
2022/10/11 03:20:37;;;;;;;7.00;1.90;;;;;;;7.16;100.00;101370.00;6038104;29;20140;-90
2022/10/11 03:23:39;;;;;;;10.65;1.60;;;;;;;7.17;100.00;101374.22;6038897;29;20049;-90
2022/10/11 03:26:40;;;;;;;7.78;1.58;;;;;;;7.12;100.00;101377.84;6037765;29;20065;-90
2022/10/11 03:29:42;;;;;;;9.30;1.85;;;;;;;7.12;100.00;101382.16;6045137;29;20060;-90
2022/10/11 03:32:44;;;;;;;9.18;1.88;;;;;;;7.09;100.00;101388.31;6048051;29;20625;-90
2022/10/11 03:35:47;;;;;;;7.70;1.50;;;;;;;7.10;100.00;101389.13;6043757;29;20104;-90
2022/10/11 03:38:49;;;;;;;10.68;2.15;;;;;;;7.11;100.00;101383.09;6039561;29;20053;-89
2022/10/11 03:41:51;;;;;;;10.07;1.77;;;;;;;7.11;100.00;101386.50;6044946;29;20152;-90
2022/10/11 03:44:52;;;;;;;9.70;2.08;;;;;;;7.10;100.00;101390.00;6046259;29;20049;-90
2022/10/11 03:47:54;;;;;;;10.05;1.88;;;;;;;7.10;100.00;101391.69;6040531;29;20044;-90
2022/10/11 03:50:56;;;;;;;7.95;1.60;;;;;;;7.09;100.00;101397.78;6044336;29;20047;-89
2022/10/11 03:53:57;;;;;;;7.93;2.20;;;;;;;7.08;100.00;101406.38;6041856;29;20108;-89
2022/10/11 03:56:59;;;;;;;8.77;1.83;;;;;;;7.07;100.00;101405.56;6045826;29;20149;-89
2022/10/11 04:00:01;;;;;;;6.13;1.83;;;;;;;7.03;100.00;101405.78;6040452;29;20045;-89
2022/10/11 04:03:05;;;;;;;8.05;1.80;;;;;;;7.02;100.00;101414.44;6036140;29;20484;-89
2022/10/11 04:06:07;;;;;;;8.50;1.83;;;;;;;7.00;100.00;101411.91;6038995;29;20075;-89
2022/10/11 04:09:09;;;;;;;8.85;1.95;;;;;;;7.00;100.00;101416.25;6043297;29;20053;-90
2022/10/11 04:12:11;;;;;;;12.07;2.25;;;;;;;6.97;100.00;101424.94;6041565;29;20408;-89
2022/10/11 04:15:13;;;;;;;8.45;1.65;;;;;;;6.93;100.00;101428.56;6041943;29;20696;-89
2022/10/11 04:18:15;;;;;;;8.32;1.60;;;;;;;6.91;100.00;101425.28;6040597;29;20055;-89
2022/10/11 04:21:17;;;;;;;8.23;1.60;;;;;;;6.92;100.00;101437.22;6037895;29;20488;-90
2022/10/11 04:24:19;;;;;;;11.73;2.25;;;;;;;6.90;100.00;101441.59;6060379;29;20048;-89
2022/10/11 04:27:20;;;;;;;12.73;1.85;;;;;;;6.92;100.00;101441.53;6034165;29;20049;-90
2022/10/11 04:30:22;;;;;;;9.95;1.77;;;;;;;6.95;100.00;101441.38;6047812;29;20513;-89
2022/10/11 04:33:24;;;;;;;7.88;2.40;;;;;;;6.97;100.00;101442.16;6040191;29;20194;-89
2022/10/11 04:36:26;;;;;;;4.78;1.60;;;;;;;6.96;100.00;101448.22;6046021;29;20049;-90
2022/10/11 04:39:27;;;;;;;8.20;1.67;;;;;;;6.96;100.00;101443.88;6036951;29;20041;-90
2022/10/11 04:42:29;;;;;;;10.20;2.13;;;;;;;6.98;100.00;101451.53;6040129;29;20564;-89
2022/10/11 04:45:31;;;;;;;11.80;2.17;;;;;;;6.98;100.00;101448.94;6047041;29;20545;-90
2022/10/11 04:48:34;;;;;;;10.00;1.63;;;;;;;6.99;100.00;101448.06;6052845;29;20045;-89
2022/10/11 04:51:36;;;;;;;6.85;1.48;;;;;;;7.03;100.00;101449.56;6040435;29;20046;-89
2022/10/11 04:54:37;;;;;;;8.30;1.65;;;;;;;7.01;100.00;101462.50;6024559;29;20499;-89
2022/10/11 04:57:39;;;;;;;10.52;2.25;;;;;;;7.00;100.00;101460.00;6037827;29;20136;-89
2022/10/11 05:00:41;;;;;;;7.78;1.95;;;;;;;6.94;100.00;101466.28;6036909;29;20056;-90
2022/10/11 05:03:43;;;;;;;8.45;1.30;;;;;;;6.99;100.00;101464.31;6040567;29;20049;-89
2022/10/11 05:06:45;;;;;;;8.80;2.60;;;;;;;7.00;100.00;101470.31;6034916;29;20500;-89
2022/10/11 05:09:47;;;;;;;6.00;1.52;;;;;;;7.02;100.00;101473.63;6042943;29;20136;-90
2022/10/11 05:12:49;;;;;;;6.65;1.85;;;;;;;7.00;100.00;101473.69;6046233;29;20224;-89
2022/10/11 05:15:51;;;;;;;9.50;2.00;;;;;;;7.01;100.00;101480.53;6046292;29;20585;-90
2022/10/11 05:18:53;;;;;;;12.30;2.28;;;;;;;7.01;100.00;101471.97;6039773;29;20044;-89
2022/10/11 05:21:55;;;;;;;8.73;1.77;;;;;;;6.97;100.00;101476.44;6041883;29;20048;-89
2022/10/11 05:24:56;;;;;;;7.85;1.67;;;;;;;6.97;100.00;101480.75;6045267;29;20049;-89
2022/10/11 05:27:58;;;;;;;11.52;1.50;;;;;;;6.99;100.00;101478.94;6036002;29;20041;-89
2022/10/11 05:31:00;;;;;;;8.45;1.83;;;;;;;6.97;100.00;101484.16;6037836;29;20045;-89
2022/10/11 05:34:02;;;;;;;13.98;1.92;;;;;;;6.93;100.00;101492.91;6047345;29;20047;-89
2022/10/11 05:37:04;;;;;;;12.32;2.53;;;;;;;6.90;100.00;101498.22;6030961;29;20045;-89
2022/10/11 05:40:06;;;;;;;9.65;1.92;;;;;;;6.87;100.00;101500.94;6035278;29;20823;-90
2022/10/11 05:43:08;;;;;;;5.82;1.40;;;;;;;6.86;100.00;101507.00;6031907;29;20078;-89
2022/10/11 05:46:11;;;;;;;11.02;1.83;;;;;;;6.86;100.00;101514.75;6036388;29;20606;-89
2022/10/11 05:49:12;;;;;;;10.45;1.70;;;;;;;6.89;100.00;101519.72;6044693;29;20041;-89
2022/10/11 05:52:18;;;;;;;9.88;1.52;;;;;;;6.92;100.00;101526.47;6044252;29;20502;-90
2022/10/11 05:55:20;;;;;;;10.88;2.17;;;;;;;6.93;100.00;101522.97;6030774;29;20049;-89
2022/10/11 05:58:23;;;;;;;9.80;1.90;;;;;;;6.93;100.00;101528.94;6043603;29;20057;-89
2022/10/11 06:01:26;;;;;;;10.73;2.28;;;;;;;6.97;100.00;101524.50;6044580;29;20045;-89
2022/10/11 06:04:27;;;;;;;11.95;1.92;;;;;;;6.95;100.00;101534.88;6039378;29;20044;-89
2022/10/11 06:07:29;;;;;;;10.27;1.90;;;;;;;6.96;100.00;101543.44;6047363;29;20116;-89
2022/10/11 06:10:32;;;;;;;4.72;1.30;;;;;;;6.95;100.00;101536.63;6033504;29;20453;-89
2022/10/11 06:13:34;;;;;;;12.05;1.85;;;;;;;6.91;100.00;101548.81;6032731;29;20092;-90
2022/10/11 06:16:36;;;;;;;10.10;1.83;;;;;;;6.87;100.00;101553.25;6043594;29;20512;-89
2022/10/11 06:19:38;;;;;;;8.25;1.98;;;;;;;6.83;100.00;101554.31;6044488;29;20045;-89
2022/10/11 06:22:40;;;;;;;5.72;1.75;;;;;;;6.81;100.00;101556.13;6043885;29;20053;-89
2022/10/11 06:25:42;;;;;;;6.30;1.60;;;;;;;6.77;100.00;101554.59;6037277;29;20045;-89
2022/10/11 06:28:44;;;;;;;9.07;2.40;;;;;;;6.76;100.00;101562.38;6038009;29;20045;-90
2022/10/11 06:31:47;;;;;;;5.35;1.80;;;;;;;6.77;100.00;101561.47;6043591;29;20078;-89
2022/10/11 06:34:49;;;;;;;5.65;1.50;;;;;;;6.75;100.00;101561.53;6031910;29;20475;-90
2022/10/11 06:37:51;;;;;;;7.15;1.65;;;;;;;6.78;100.00;101565.72;6042406;29;20128;-89
2022/10/11 06:40:53;;;;;;;7.68;2.10;;;;;;;6.78;100.00;101571.72;6045441;29;20037;-89
2022/10/11 06:43:55;;;;;;;7.10;2.28;;;;;;;6.78;100.00;101570.84;6042845;29;20128;-90
2022/10/11 06:46:57;;;;;;;7.45;1.80;;;;;;;6.78;100.00;101576.84;6034158;29;20033;-89
2022/10/11 06:49:59;;;;;;;7.82;1.85;;;;;;;6.84;100.00;101583.44;6043340;29;20056;-89
2022/10/11 06:53:01;;;;;;;9.45;2.05;;;;;;;6.90;100.00;101588.31;6040312;29;20184;-89
2022/10/11 06:56:07;;;;;;;9.10;1.60;;;;;;;6.90;100.00;101593.44;6036783;29;20049;-89
2022/10/11 06:59:11;;;;;;;9.52;2.60;;;;;;;6.94;100.00;101589.00;6043843;29;20053;-90
2022/10/11 07:02:12;;;;;;;8.43;1.83;;;;;;;6.98;100.00;101591.38;6032141;29;20053;-89
2022/10/11 07:05:15;;;;;;;12.50;2.25;;;;;;;7.02;100.00;101590.31;6038562;29;20500;-89
2022/10/11 07:08:17;;;;;;;9.00;1.95;;;;;;;7.07;100.00;101601.22;6046052;29;20120;-89
2022/10/11 07:11:25;;;;;;;6.97;1.80;;;;;;;7.11;100.00;101599.34;6032004;29;20048;-89
2022/10/11 07:14:27;;;;;;;11.63;1.77;;;;;;;7.12;100.00;101599.25;6034591;29;20067;-89
2022/10/11 07:17:29;;;;;;;10.27;2.17;;;;;;;7.21;100.00;101610.06;6045714;29;20139;-89
2022/10/11 07:20:31;;;;;;;12.00;2.65;;;;;;;7.28;100.00;101612.25;6043512;29;20527;-89
2022/10/11 07:23:33;;;;;;;14.55;2.08;;;;;;;7.35;100.00;101610.19;6034880;29;20195;-89
2022/10/11 07:26:35;;;;;;;6.32;2.00;;;;;;;7.44;100.00;101614.09;6029869;29;20049;-89
2022/10/11 07:29:40;;;;;;;6.68;2.00;;;;;;;7.54;100.00;101616.13;6028728;29;20503;-89
2022/10/11 07:32:41;;;;;;;7.88;1.98;;;;;;;7.66;100.00;101612.13;6024794;29;20049;-89
2022/10/11 07:35:43;;;;;;;12.98;2.72;;;;;;;7.92;100.00;101625.47;6043312;29;20114;-90
2022/10/11 07:38:49;;;;;;;8.70;2.13;;;;;;;8.16;100.00;101615.66;6030256;29;20042;-91
2022/10/11 07:41:51;;;;;;;8.57;2.15;;;;;;;8.34;100.00;101616.44;6030059;29;20049;-91
2022/10/11 07:44:53;;;;;;;8.50;1.52;;;;;;;8.52;100.00;101614.69;6029260;29;20125;-91
2022/10/11 07:47:55;;;;;;;7.22;1.60;;;;;;;8.64;100.00;101619.19;6034973;29;20112;-89
2022/10/11 07:51:12;;;;;;;7.25;2.10;;;;;;;8.72;100.00;101619.63;6038731;29;20049;-90
2022/10/11 07:54:14;;;;;;;10.70;2.35;;;;;;;8.81;100.00;101616.53;6051258;29;20055;-89
2022/10/11 07:57:16;;;;;;;9.88;2.50;;;;;;;8.87;100.00;101630.03;6046170;29;20503;-89
2022/10/11 08:00:18;;;;;;;7.60;1.50;;;;;;;8.96;100.00;101625.22;6042153;29;20215;-90
2022/10/11 08:03:19;;;;;;;12.30;2.63;;;;;;;9.04;100.00;101628.22;6044733;29;20286;-89
2022/10/11 08:06:26;;;;;;;16.17;2.05;;;;;;;9.22;100.00;101634.13;6047953;29;20045;-90
2022/10/11 08:09:27;;;;;;;7.90;1.90;;;;;;;9.23;100.00;101634.94;6032504;29;20210;-90
2022/10/11 08:12:29;;;;;;;10.88;2.67;;;;;;;9.33;100.00;101635.28;6045532;29;20041;-89
2022/10/11 08:15:31;;;;;;;7.70;1.60;;;;;;;9.39;100.00;101637.50;6046765;29;20053;-89
2022/10/11 08:18:33;;;;;;;6.38;1.60;;;;;;;9.38;100.00;101639.25;6038707;29;20419;-89
2022/10/11 08:21:35;;;;;;;10.05;1.80;;;;;;;9.43;100.00;101645.00;6042530;29;20045;-89
2022/10/11 08:24:37;;;;;;;9.23;1.30;;;;;;;9.47;100.00;101637.91;6046028;29;20055;-89
2022/10/11 08:27:39;;;;;;;7.53;2.22;;;;;;;9.57;100.00;101641.66;6044138;29;20116;-90
2022/10/11 08:30:46;;;;;;;6.88;1.52;;;;;;;9.57;100.00;101648.56;6040564;29;20048;-90
2022/10/11 08:33:48;;;;;;;9.07;1.65;;;;;;;9.69;100.00;101646.13;6050570;29;20082;-89
2022/10/11 08:36:50;;;;;;;8.95;1.75;;;;;;;9.70;100.00;101647.78;6052787;29;20505;-89
2022/10/11 08:39:52;;;;;;;7.38;1.45;;;;;;;9.70;100.00;101657.28;6045489;29;20048;-89
2022/10/11 08:43:01;;;;;;;6.75;1.63;;;;;;;9.69;100.00;101656.47;6043573;29;20400;-89
2022/10/11 08:46:06;;;;;;;12.15;2.00;;;;;;;9.81;100.00;101664.41;6040775;29;20060;-91
2022/10/11 08:49:12;;;;;;;6.93;1.85;;;;;;;9.87;100.00;101670.09;6034136;29;20157;-91
2022/10/11 08:52:36;;;;;;;6.10;1.60;;;;;;;10.00;100.00;101667.63;6045523;29;20136;-89
2022/10/11 08:55:44;;;;;;;9.73;2.00;;;;;;;9.98;100.00;101666.88;6041122;29;20393;-89
2022/10/11 08:59:10;;;;;;;4.80;1.55;;;;;;;9.95;100.00;101671.41;6038914;29;20125;-89
2022/10/11 09:02:24;;;;;;;10.27;1.67;;;;;;;9.97;100.00;101660.03;6059284;29;20052;-89
2022/10/11 09:05:34;;;;;;;10.45;1.50;;;;;;;10.07;100.00;101671.50;6043409;29;20848;-91
2022/10/11 09:09:01;;;;;;;9.38;1.60;;;;;;;10.14;100.00;101669.41;6040467;29;20041;-90
2022/10/11 09:12:24;;;;;;;5.30;1.75;;;;;;;10.29;100.00;101668.53;6038148;29;20049;-89
2022/10/11 09:15:37;;;;;;;7.75;1.45;;;;;;;10.39;100.00;101668.81;6048801;29;20045;-89
2022/10/11 09:19:04;;;;;;;11.15;1.73;;;;;;;10.38;100.00;101674.91;6049528;29;20049;-89
2022/10/11 09:22:16;;;;;;;10.88;2.15;;;;;;;10.39;100.00;101674.00;6040130;29;20123;-89
2022/10/11 09:25:24;;;;;;;10.13;1.80;;;;;;;10.49;100.00;101674.28;6040420;29;20120;-89
2022/10/11 09:28:54;;;;;;;7.38;1.38;;;;;;;10.56;100.00;101679.00;6048008;29;20415;-90
2022/10/11 09:32:01;;;;;;;7.63;1.33;;;;;;;10.51;100.00;101675.03;6044083;29;20053;-89
2022/10/11 09:35:12;;;;;;;10.70;1.88;;;;;;;10.66;100.00;101676.69;6048961;29;20068;-89
2022/10/11 09:38:29;;;;;;;10.98;2.05;;;;;;;10.72;100.00;101678.06;6037062;29;20427;-88
2022/10/11 09:41:47;;;;;;;10.38;2.35;;;;;;;10.86;100.00;101679.81;6041857;29;20045;-89
2022/10/11 09:44:50;;;;;;;8.15;1.48;;;;;;;10.93;100.00;101683.66;6037870;29;20452;-90
2022/10/11 09:47:55;;;;;;;8.98;1.77;;;;;;;11.14;100.00;101687.50;6041382;29;20049;-89
2022/10/11 09:51:11;;;;;;;11.68;1.60;;;;;;;11.29;100.00;101677.94;6041506;29;20498;-88
2022/10/11 09:54:13;;;;;;;7.60;1.77;;;;;;;11.46;100.00;101686.41;6037767;29;20119;-89
2022/10/11 09:57:21;;;;;;;4.68;1.30;;;;;;;11.60;100.00;101678.56;6044950;29;20048;-89
2022/10/11 10:00:26;;;;;;;7.50;1.40;;;;;;;11.82;100.00;101686.59;6043734;29;20064;-89
2022/10/11 10:03:36;;;;;;;8.43;1.85;;;;;;;12.00;100.00;101691.53;6044767;29;20132;-89
2022/10/11 10:06:38;;;;;;;9.07;1.77;;;;;;;12.16;98.64;101683.59;6042558;29;20052;-88
2022/10/11 10:09:41;;;;;;;6.80;1.55;;;;;;;12.20;99.14;101687.66;6038926;29;20061;-89
2022/10/11 10:12:42;;;;;;;9.05;1.52;;;;;;;12.32;99.33;101678.19;6041845;29;20105;-89
2022/10/11 10:15:47;;;;;;;9.63;1.80;;;;;;;12.32;98.76;101685.97;6040162;29;20389;-89
2022/10/11 10:18:50;;;;;;;10.73;1.70;;;;;;;12.39;94.94;101680.25;6043906;29;20598;-89
2022/10/11 10:21:54;;;;;;;7.88;1.60;;;;;;;12.52;95.36;101677.66;6037713;29;20040;-88
2022/10/11 10:25:01;;;;;;;11.18;2.38;;;;;;;12.40;96.85;101691.50;6028244;29;20120;-89
2022/10/11 10:28:22;;;;;;;8.73;1.77;;;;;;;12.26;97.78;101680.25;6045720;29;20049;-89
2022/10/11 10:31:38;;;;;;;9.75;1.58;;;;;;;12.23;97.41;101690.84;6035321;29;20088;-89
2022/10/11 10:35:24;;;;;;;8.32;1.42;;;;;;;12.33;96.58;101691.06;6037297;29;20053;-89
2022/10/11 10:38:44;;;;;;;9.35;1.77;;;;;;;12.46;92.60;101681.50;6036455;29;20441;-89
2022/10/11 10:41:52;;;;;;;11.05;1.58;;;;;;;12.60;93.27;101692.72;6051439;29;20040;-89
2022/10/11 10:44:57;;;;;;;6.38;1.75;;;;;;;12.67;93.47;101686.13;6042733;29;20706;-89
2022/10/11 10:48:33;;;;;;;6.53;1.35;;;;;;;12.80;91.31;101689.56;6046032;29;20049;-88
2022/10/11 10:52:13;;;;;;;12.75;2.15;;;;;;;12.91;88.82;101687.03;6038348;29;20535;-89
2022/10/11 10:55:30;;;;;;;;;;;;;;;12.97;87.44;101690.13;6026563;29;20143;-89
2022/10/11 10:58:50;;;;;;;10.20;1.30;;;;;;;13.01;85.64;101691.59;6040099;29;20331;-89
2022/10/11 11:02:29;;;;;;;10.00;1.50;;;;;;;13.04;83.69;101683.56;6034967;29;21356;-89
2022/10/11 11:05:53;;;;;;;6.80;1.35;;;;;;;13.06;84.38;101679.09;6045260;29;20468;-88
2022/10/11 11:09:14;;;;;;;6.88;1.35;;;;;;;13.20;85.50;101688.53;6050450;29;20499;-89
2022/10/11 11:12:21;;;;;;;8.10;1.63;;;;;;;13.20;86.26;101689.34;6048681;29;20116;-88
2022/10/11 11:15:33;;;;;;;7.00;1.08;;;;;;;13.20;85.05;101689.34;6035270;29;20071;-90
2022/10/11 11:18:53;;;;;;;3.80;1.40;;;;;;;13.17;84.27;101686.97;6037635;29;20048;-89
2022/10/11 11:22:09;;;;;;;6.13;1.20;;;;;;;13.15;84.34;101686.25;6038483;29;20055;-88
2022/10/11 11:25:35;;;;;;;10.05;1.45;;;;;;;13.03;85.81;101682.75;6045015;29;20064;-88
2022/10/11 11:28:48;;;;;;;4.90;1.50;;;;;;;13.07;87.75;101688.56;6037788;29;20448;-88
2022/10/11 11:31:56;;;;;;;6.82;1.20;;;;;;;13.07;86.64;101673.81;6028191;29;20064;-88
2022/10/11 11:35:02;;;;;;;6.72;1.25;;;;;;;13.07;85.50;101683.38;6043968;29;20060;-89
2022/10/11 11:38:32;;;;;;;4.72;1.48;;;;;;;13.09;85.66;101684.94;6044367;29;20053;-89
2022/10/11 11:41:50;;;;;;;13.90;2.07;;;;;;;13.11;84.02;101684.81;6042856;29;20201;-88
2022/10/11 11:44:52;;;;;;;6.63;1.20;;;;;;;13.21;84.02;101695.38;6046308;29;20510;-88
2022/10/11 11:48:19;;;;;;;9.40;1.58;;;;;;;13.15;85.72;101686.25;6049150;29;20498;-88
2022/10/11 11:51:33;;;;;;;4.25;1.40;;;;;;;13.19;86.11;101684.25;6022355;29;20230;-88
2022/10/11 11:54:47;;;;;;;4.97;1.48;;;;;;;13.13;85.60;101686.34;6022637;29;20057;-89
2022/10/11 11:57:57;;;;;;;7.10;1.25;;;;;;;13.13;85.42;101683.75;6022283;29;20053;-88
2022/10/11 12:01:20;;;;;;;6.65;1.45;;;;;;;13.06;85.42;101682.53;6023210;29;20576;-89
2022/10/11 12:04:34;;;;;;;6.32;1.25;;;;;;;12.99;87.00;101683.91;6024073;29;20061;-88
2022/10/11 12:07:58;;;;;;;7.78;1.40;;;;;;;12.87;86.56;101684.78;6022337;29;20068;-88
2022/10/11 12:11:01;;;;;;;9.80;1.92;;;;;;;12.93;85.83;101679.97;6023013;29;20054;-88
2022/10/11 12:14:27;;;;;;;7.53;1.30;;;;;;;12.91;85.11;101681.84;6022509;29;20116;-89
2022/10/11 12:17:30;;;;;;;11.50;1.40;;;;;;;13.05;84.43;101677.44;6001803;29;20608;-88
2022/10/11 12:20:39;;;;;;;9.82;1.67;;;;;;;13.13;83.46;101675.13;6022349;29;20053;-88
2022/10/11 12:23:52;;;;;;;9.27;1.42;;;;;;;13.08;83.74;101674.63;6019844;29;20293;-89
2022/10/11 12:26:57;;;;;;;6.15;1.10;;;;;;;13.15;82.42;101673.25;6021632;29;20049;-89
2022/10/11 12:29:59;;;;;;;8.77;1.33;;;;;;;13.14;80.95;101667.22;6037741;29;20060;-89
2022/10/11 12:33:23;;;;;;;6.80;1.42;;;;;;;13.31;80.53;101675.59;6053253;29;20064;-89
2022/10/11 12:36:33;;;;;;;4.85;1.17;;;;;;;13.44;80.88;101679.00;6040261;29;20052;-89
2022/10/11 12:39:43;;;;;;;4.78;1.00;;;;;;;13.49;80.69;101676.03;6041662;29;20045;-89
2022/10/11 12:43:17;;;;;;;3.83;1.17;;;;;;;13.49;80.54;101669.09;6042953;29;20162;-88
2022/10/11 12:46:38;;;;;;;9.00;1.00;;;;;;;13.43;80.70;101671.28;6042535;29;20064;-89
2022/10/11 12:50:05;;;;;;;10.80;1.70;;;;;;;13.38;82.11;101676.00;6046173;29;20408;-88
2022/10/11 12:53:36;;;;;;;4.30;1.27;;;;;;;13.26;79.45;101672.47;6036193;29;20064;-88
2022/10/11 12:57:18;;;;;;;7.43;1.40;;;;;;;13.30;79.10;101671.34;6038808;29;20660;-89
2022/10/11 13:00:30;;;;;;;6.45;1.20;;;;;;;13.34;78.44;101670.19;5986004;29;20153;-89
2022/10/11 13:03:39;;;;;;;8.00;1.15;;;;;;;13.33;77.49;101664.16;5997643;29;20053;-89
2022/10/11 13:06:48;;;;;;;5.13;1.63;;;;;;;13.39;78.09;101662.91;6000041;29;20061;-88
2022/10/11 13:09:54;;;;;;;9.77;1.42;;;;;;;13.41;77.92;101666.19;5987323;29;20105;-89
2022/10/11 13:12:58;;;;;;;9.50;1.58;;;;;;;13.48;78.89;101656.19;6001210;29;20128;-89
2022/10/11 13:16:08;;;;;;;3.97;1.15;;;;;;;13.58;77.83;101657.16;5986165;29;20584;-88
2022/10/11 13:19:12;;;;;;;5.03;1.25;;;;;;;13.71;76.79;101657.94;5993027;29;20274;-89
2022/10/11 13:22:19;;;;;;;6.97;1.20;;;;;;;13.64;78.08;101651.53;5988470;29;20130;-89
2022/10/11 13:25:26;;;;;;;8.77;1.77;;;;;;;13.53;77.70;101657.50;6000870;29;20450;-88
2022/10/11 13:28:30;;;;;;;4.28;1.00;;;;;;;13.55;76.62;101654.78;5993866;29;20073;-88
2022/10/11 13:31:39;;;;;;;7.40;1.92;;;;;;;13.64;74.76;101658.47;5977066;29;20063;-88
2022/10/11 13:34:44;;;;;;;5.50;1.10;;;;;;;13.67;74.03;101655.66;5954888;29;20513;-89
2022/10/11 13:37:47;;;;;;;5.88;1.60;;;;;;;13.76;74.64;101658.44;6038406;29;20127;-89
2022/10/11 13:40:50;;;;;;;6.28;1.40;;;;;;;13.85;71.30;101653.47;6046789;29;20045;-88
2022/10/11 13:43:53;;;;;;;5.68;1.38;;;;;;;13.98;70.50;101656.81;6033550;29;20052;-88
2022/10/11 13:46:56;;;;;;;6.38;1.10;;;;;;;14.03;71.89;101653.84;6036492;29;20385;-88
2022/10/11 13:50:16;;;;;;;7.03;1.20;;;;;;;13.70;73.32;101653.66;6038048;29;20049;-88
2022/10/11 13:53:17;;;;;;;4.75;1.27;;;;;;;13.74;74.11;101646.47;6042786;29;20452;-88
2022/10/11 13:56:20;;;;;;;8.88;1.67;;;;;;;13.98;73.73;101642.00;6031636;29;20412;-89
2022/10/11 13:59:26;;;;;;;5.85;1.35;;;;;;;14.19;74.00;101646.56;6036403;29;20049;-88
2022/10/11 14:02:30;;;;;;;11.68;1.92;;;;;;;14.33;73.22;101641.09;6041895;29;20408;-88
2022/10/11 14:05:38;;;;;;;5.47;1.60;;;;;;;14.43;71.90;101646.41;6043824;29;20568;-88
2022/10/11 14:08:41;;;;;;;4.72;1.50;;;;;;;14.55;73.16;101648.09;6042072;29;20120;-88
2022/10/11 14:11:43;;;;;;;7.45;1.60;;;;;;;14.76;72.71;101643.00;6039386;29;20385;-88
2022/10/11 14:14:47;;;;;;;4.32;1.20;;;;;;;14.95;72.10;101638.94;6032664;29;20045;-89
2022/10/11 14:17:50;;;;;;;6.55;1.65;;;;;;;15.03;70.40;101645.22;6036408;29;20259;-88
2022/10/11 14:20:52;;;;;;;4.93;1.20;;;;;;;14.79;71.37;101639.34;6043339;29;20514;-89
2022/10/11 14:24:09;;;;;;;9.48;1.60;;;;;;;14.51;72.83;101641.47;6039439;29;20048;-89
2022/10/11 14:27:20;;;;;;;5.60;1.30;;;;;;;14.35;72.68;101647.00;6040004;29;20044;-88
2022/10/11 14:30:23;;;;;;;6.00;1.23;;;;;;;14.15;73.15;101638.13;6031032;29;20493;-89